sensor_id;sensor_type;location;lat;lon;timestamp;pressure;altitude;pressure_sealevel;temperature;humidity
74075;BME280;62428;51.412;5.432;2022-12-15T00:02:23;100511.75;;;-6.67;80.91
74075;BME280;62428;51.412;5.432;2022-12-15T00:05:07;100509.69;;;-6.72;81.79
74075;BME280;62428;51.412;5.432;2022-12-15T00:07:51;100505.47;;;-6.73;81.58
74075;BME280;62428;51.412;5.432;2022-12-15T00:10:35;100510.44;;;-6.78;81.41
74075;BME280;62428;51.412;5.432;2022-12-15T00:13:19;100503.78;;;-6.81;81.22
74075;BME280;62428;51.412;5.432;2022-12-15T00:16:03;100509.38;;;-6.84;81.51
74075;BME280;62428;51.412;5.432;2022-12-15T00:18:47;100503.69;;;-6.87;81.37
74075;BME280;62428;51.412;5.432;2022-12-15T00:21:31;100508.13;;;-6.88;81.74
74075;BME280;62428;51.412;5.432;2022-12-15T00:24:16;100499.66;;;-6.90;81.50
74075;BME280;62428;51.412;5.432;2022-12-15T00:27:00;100503.81;;;-6.96;81.42
74075;BME280;62428;51.412;5.432;2022-12-15T00:29:44;100509.41;;;-6.99;81.64
74075;BME280;62428;51.412;5.432;2022-12-15T00:32:27;100519.25;;;-7.01;81.59
74075;BME280;62428;51.412;5.432;2022-12-15T00:35:12;100516.38;;;-7.06;81.77
74075;BME280;62428;51.412;5.432;2022-12-15T00:37:56;100517.34;;;-7.07;81.77
74075;BME280;62428;51.412;5.432;2022-12-15T00:40:40;100510.53;;;-7.08;82.09
74075;BME280;62428;51.412;5.432;2022-12-15T00:43:05;100517.53;;;-7.08;81.81
74075;BME280;62428;51.412;5.432;2022-12-15T00:45:31;100511.31;;;-7.07;82.03
74075;BME280;62428;51.412;5.432;2022-12-15T00:48:15;100511.94;;;-7.05;82.58
74075;BME280;62428;51.412;5.432;2022-12-15T00:50:43;100513.75;;;-7.06;82.12
74075;BME280;62428;51.412;5.432;2022-12-15T00:53:21;100517.78;;;-7.03;82.04
74075;BME280;62428;51.412;5.432;2022-12-15T00:56:06;100520.22;;;-7.02;81.93
74075;BME280;62428;51.412;5.432;2022-12-15T00:58:49;100526.25;;;-7.01;81.86
74075;BME280;62428;51.412;5.432;2022-12-15T01:01:33;100529.03;;;-7.03;81.81
74075;BME280;62428;51.412;5.432;2022-12-15T01:04:17;100532.03;;;-7.06;81.87
74075;BME280;62428;51.412;5.432;2022-12-15T01:07:01;100522.75;;;-7.08;82.32
74075;BME280;62428;51.412;5.432;2022-12-15T01:09:45;100527.34;;;-7.10;82.34
74075;BME280;62428;51.412;5.432;2022-12-15T01:12:29;100529.16;;;-7.11;82.71
74075;BME280;62428;51.412;5.432;2022-12-15T01:15:13;100525.75;;;-7.11;82.93
74075;BME280;62428;51.412;5.432;2022-12-15T01:17:57;100533.41;;;-7.10;82.83
74075;BME280;62428;51.412;5.432;2022-12-15T01:20:41;100529.16;;;-7.11;82.51
74075;BME280;62428;51.412;5.432;2022-12-15T01:23:06;100525.91;;;-7.13;82.81
74075;BME280;62428;51.412;5.432;2022-12-15T01:25:32;100518.88;;;-7.12;83.14
74075;BME280;62428;51.412;5.432;2022-12-15T01:27:57;100518.88;;;-7.12;83.08
74075;BME280;62428;51.412;5.432;2022-12-15T01:30:24;100521.31;;;-7.11;82.99
74075;BME280;62428;51.412;5.432;2022-12-15T01:32:50;100513.13;;;-7.08;83.18
74075;BME280;62428;51.412;5.432;2022-12-15T01:35:17;100514.91;;;-7.08;82.55
74075;BME280;62428;51.412;5.432;2022-12-15T01:37:42;100529.59;;;-7.07;82.47
74075;BME280;62428;51.412;5.432;2022-12-15T01:40:13;100539.69;;;-7.04;82.89
74075;BME280;62428;51.412;5.432;2022-12-15T01:42:57;100535.28;;;-7.04;82.66
74075;BME280;62428;51.412;5.432;2022-12-15T01:45:35;100537.25;;;-7.06;82.34
74075;BME280;62428;51.412;5.432;2022-12-15T01:48:08;100538.63;;;-7.10;82.69
74075;BME280;62428;51.412;5.432;2022-12-15T01:50:39;100538.97;;;-7.13;82.18
74075;BME280;62428;51.412;5.432;2022-12-15T01:53:07;100543.41;;;-7.13;82.35
74075;BME280;62428;51.412;5.432;2022-12-15T01:55:32;100549.59;;;-7.15;82.67
74075;BME280;62428;51.412;5.432;2022-12-15T01:58:02;100548.97;;;-7.17;82.67
74075;BME280;62428;51.412;5.432;2022-12-15T02:00:30;100549.50;;;-7.21;82.44
74075;BME280;62428;51.412;5.432;2022-12-15T02:02:57;100542.69;;;-7.22;82.95
74075;BME280;62428;51.412;5.432;2022-12-15T02:05:29;100551.31;;;-7.22;83.13
74075;BME280;62428;51.412;5.432;2022-12-15T02:07:56;100552.75;;;-7.19;82.93
74075;BME280;62428;51.412;5.432;2022-12-15T02:10:26;100561.22;;;-7.17;83.45
74075;BME280;62428;51.412;5.432;2022-12-15T02:13:15;100560.22;;;-7.16;83.10
74075;BME280;62428;51.412;5.432;2022-12-15T02:15:48;100563.63;;;-7.16;83.23
74075;BME280;62428;51.412;5.432;2022-12-15T02:18:21;100563.47;;;-7.14;83.21
74075;BME280;62428;51.412;5.432;2022-12-15T02:21:01;100568.69;;;-7.14;83.54
74075;BME280;62428;51.412;5.432;2022-12-15T02:29:23;100574.19;;;-7.09;83.32
74075;BME280;62428;51.412;5.432;2022-12-15T02:31:58;100579.41;;;-7.09;83.43
74075;BME280;62428;51.412;5.432;2022-12-15T02:37:18;100583.03;;;-7.10;83.03
74075;BME280;62428;51.412;5.432;2022-12-15T02:39:45;100589.03;;;-7.09;83.18
74075;BME280;62428;51.412;5.432;2022-12-15T02:42:11;100590.84;;;-7.10;82.87
74075;BME280;62428;51.412;5.432;2022-12-15T02:44:52;100592.63;;;-7.10;83.00
74075;BME280;62428;51.412;5.432;2022-12-15T02:56:12;100583.72;;;-7.16;83.03
74075;BME280;62428;51.412;5.432;2022-12-15T03:01:45;100582.94;;;-7.17;82.87
74075;BME280;62428;51.412;5.432;2022-12-15T03:04:10;100581.69;;;-7.21;82.94
74075;BME280;62428;51.412;5.432;2022-12-15T03:06:37;100586.44;;;-7.24;83.29
74075;BME280;62428;51.412;5.432;2022-12-15T03:09:02;100583.00;;;-7.25;83.23
74075;BME280;62428;51.412;5.432;2022-12-15T03:11:28;100584.81;;;-7.25;83.26
74075;BME280;62428;51.412;5.432;2022-12-15T03:13:53;100587.44;;;-7.25;83.44
74075;BME280;62428;51.412;5.432;2022-12-15T03:16:19;100589.69;;;-7.22;83.77
74075;BME280;62428;51.412;5.432;2022-12-15T03:18:45;100603.38;;;-7.20;83.56
74075;BME280;62428;51.412;5.432;2022-12-15T03:21:11;100608.75;;;-7.22;83.82
74075;BME280;62428;51.412;5.432;2022-12-15T03:23:36;100614.00;;;-7.22;83.74
74075;BME280;62428;51.412;5.432;2022-12-15T03:26:02;100609.78;;;-7.23;83.31
74075;BME280;62428;51.412;5.432;2022-12-15T03:28:28;100615.78;;;-7.22;83.47
74075;BME280;62428;51.412;5.432;2022-12-15T03:30:53;100605.53;;;-7.24;83.12
74075;BME280;62428;51.412;5.432;2022-12-15T03:33:20;100607.50;;;-7.26;83.72
74075;BME280;62428;51.412;5.432;2022-12-15T03:35:46;100607.50;;;-7.26;83.52
74075;BME280;62428;51.412;5.432;2022-12-15T03:38:11;100615.16;;;-7.24;83.66
74075;BME280;62428;51.412;5.432;2022-12-15T03:40:37;100609.13;;;-7.25;83.83
74075;BME280;62428;51.412;5.432;2022-12-15T03:43:02;100607.34;;;-7.24;84.16
74075;BME280;62428;51.412;5.432;2022-12-15T03:45:28;100600.13;;;-7.22;84.39
74075;BME280;62428;51.412;5.432;2022-12-15T03:47:54;100600.59;;;-7.19;85.08
74075;BME280;62428;51.412;5.432;2022-12-15T03:50:22;100594.97;;;-7.16;85.04
74075;BME280;62428;51.412;5.432;2022-12-15T03:52:56;100594.63;;;-7.12;85.05
74075;BME280;62428;51.412;5.432;2022-12-15T03:55:22;100605.25;;;-7.14;84.76
74075;BME280;62428;51.412;5.432;2022-12-15T03:57:48;100606.88;;;-7.13;84.60
74075;BME280;62428;51.412;5.432;2022-12-15T04:00:15;100602.63;;;-7.14;84.83
74075;BME280;62428;51.412;5.432;2022-12-15T04:02:41;100594.81;;;-7.14;84.74
74075;BME280;62428;51.412;5.432;2022-12-15T04:05:08;100601.47;;;-7.11;84.53
74075;BME280;62428;51.412;5.432;2022-12-15T04:07:37;100600.47;;;-7.10;84.38
74075;BME280;62428;51.412;5.432;2022-12-15T04:10:03;100601.09;;;-7.08;84.00
74075;BME280;62428;51.412;5.432;2022-12-15T04:12:28;100599.50;;;-7.09;84.37
74075;BME280;62428;51.412;5.432;2022-12-15T04:14:54;100599.31;;;-7.08;84.30
74075;BME280;62428;51.412;5.432;2022-12-15T04:17:19;100596.09;;;-7.10;84.60
74075;BME280;62428;51.412;5.432;2022-12-15T04:19:44;100598.88;;;-7.11;83.99
74075;BME280;62428;51.412;5.432;2022-12-15T04:22:28;100599.03;;;-7.13;84.23
74075;BME280;62428;51.412;5.432;2022-12-15T04:24:54;100614.09;;;-7.15;83.81
74075;BME280;62428;51.412;5.432;2022-12-15T04:27:38;100620.47;;;-7.18;84.10
74075;BME280;62428;51.412;5.432;2022-12-15T04:30:22;100612.63;;;-7.18;84.02
74075;BME280;62428;51.412;5.432;2022-12-15T04:33:05;100619.84;;;-7.20;84.08
74075;BME280;62428;51.412;5.432;2022-12-15T04:35:50;100620.63;;;-7.19;84.02
74075;BME280;62428;51.412;5.432;2022-12-15T04:38:34;100624.09;;;-7.19;84.13
74075;BME280;62428;51.412;5.432;2022-12-15T04:41:20;100631.91;;;-7.19;84.56
74075;BME280;62428;51.412;5.432;2022-12-15T04:44:05;100620.47;;;-7.18;84.88
74075;BME280;62428;51.412;5.432;2022-12-15T04:46:49;100626.53;;;-7.17;84.60
74075;BME280;62428;51.412;5.432;2022-12-15T04:49:33;100615.88;;;-7.16;84.96
74075;BME280;62428;51.412;5.432;2022-12-15T04:52:17;100621.09;;;-7.16;85.17
74075;BME280;62428;51.412;5.432;2022-12-15T04:55:01;100627.16;;;-7.15;84.58
74075;BME280;62428;51.412;5.432;2022-12-15T04:57:45;100629.59;;;-7.13;85.24
74075;BME280;62428;51.412;5.432;2022-12-15T05:00:28;100617.50;;;-7.15;85.53
74075;BME280;62428;51.412;5.432;2022-12-15T05:03:13;100614.72;;;-7.13;84.71
74075;BME280;62428;51.412;5.432;2022-12-15T05:05:56;100614.53;;;-7.11;85.28
74075;BME280;62428;51.412;5.432;2022-12-15T05:08:41;100625.63;;;-7.09;85.16
74075;BME280;62428;51.412;5.432;2022-12-15T05:11:25;100625.44;;;-7.08;85.21
74075;BME280;62428;51.412;5.432;2022-12-15T05:14:09;100639.28;;;-7.07;85.17
74075;BME280;62428;51.412;5.432;2022-12-15T05:16:53;100639.47;;;-7.09;85.35
74075;BME280;62428;51.412;5.432;2022-12-15T05:19:37;100638.50;;;-7.08;85.38
74075;BME280;62428;51.412;5.432;2022-12-15T05:22:21;100635.72;;;-7.06;85.66
74075;BME280;62428;51.412;5.432;2022-12-15T05:25:05;100636.50;;;-7.06;85.54
74075;BME280;62428;51.412;5.432;2022-12-15T05:27:48;100649.75;;;-7.07;85.22
74075;BME280;62428;51.412;5.432;2022-12-15T05:30:32;100650.56;;;-7.07;85.60
74075;BME280;62428;51.412;5.432;2022-12-15T05:33:16;100654.97;;;-7.07;85.48
74075;BME280;62428;51.412;5.432;2022-12-15T05:35:41;100655.78;;;-7.07;85.51
74075;BME280;62428;51.412;5.432;2022-12-15T05:38:07;100650.72;;;-7.08;85.76
74075;BME280;62428;51.412;5.432;2022-12-15T05:40:32;100654.34;;;-7.09;85.57
74075;BME280;62428;51.412;5.432;2022-12-15T05:42:58;100660.19;;;-7.07;85.76
74075;BME280;62428;51.412;5.432;2022-12-15T05:45:23;100675.06;;;-7.08;85.43
74075;BME280;62428;51.412;5.432;2022-12-15T05:47:50;100668.84;;;-7.07;85.93
74075;BME280;62428;51.412;5.432;2022-12-15T05:50:16;100671.44;;;-7.07;85.79
74075;BME280;62428;51.412;5.432;2022-12-15T05:52:41;100669.66;;;-7.06;85.69
74075;BME280;62428;51.412;5.432;2022-12-15T05:55:07;100670.47;;;-7.06;86.08
74075;BME280;62428;51.412;5.432;2022-12-15T05:57:33;100673.06;;;-7.06;85.64
74075;BME280;62428;51.412;5.432;2022-12-15T05:59:58;100669.84;;;-7.08;85.43
74075;BME280;62428;51.412;5.432;2022-12-15T06:02:23;100670.00;;;-7.09;85.57
74075;BME280;62428;51.412;5.432;2022-12-15T06:04:49;100664.00;;;-7.10;85.89
74075;BME280;62428;51.412;5.432;2022-12-15T06:07:14;100662.19;;;-7.09;85.71
74075;BME280;62428;51.412;5.432;2022-12-15T06:09:39;100660.38;;;-7.09;85.35
74075;BME280;62428;51.412;5.432;2022-12-15T06:12:05;100661.16;;;-7.08;85.07
74075;BME280;62428;51.412;5.432;2022-12-15T06:14:30;100667.41;;;-7.09;85.21
74075;BME280;62428;51.412;5.432;2022-12-15T06:16:56;100659.75;;;-7.11;85.51
74075;BME280;62428;51.412;5.432;2022-12-15T06:19:21;100666.16;;;-7.13;85.23
74075;BME280;62428;51.412;5.432;2022-12-15T06:21:48;100666.66;;;-7.18;85.51
74075;BME280;62428;51.412;5.432;2022-12-15T06:24:13;100678.09;;;-7.19;85.78
74075;BME280;62428;51.412;5.432;2022-12-15T06:26:39;100677.28;;;-7.20;86.53
74075;BME280;62428;51.412;5.432;2022-12-15T06:29:06;100689.53;;;-7.20;86.90
74075;BME280;62428;51.412;5.432;2022-12-15T06:31:36;100689.72;;;-7.22;86.80
74075;BME280;62428;51.412;5.432;2022-12-15T06:34:06;100684.50;;;-7.22;86.75
74075;BME280;62428;51.412;5.432;2022-12-15T06:36:32;100686.31;;;-7.22;86.57
74075;BME280;62428;51.412;5.432;2022-12-15T06:38:59;100683.69;;;-7.22;86.70
74075;BME280;62428;51.412;5.432;2022-12-15T06:41:25;100681.88;;;-7.22;86.83
74075;BME280;62428;51.412;5.432;2022-12-15T06:43:53;100681.72;;;-7.20;86.97
74075;BME280;62428;51.412;5.432;2022-12-15T06:46:20;100684.94;;;-7.18;86.97
74075;BME280;62428;51.412;5.432;2022-12-15T06:48:46;100680.53;;;-7.18;86.66
74075;BME280;62428;51.412;5.432;2022-12-15T06:51:12;100685.56;;;-7.16;86.70
74075;BME280;62428;51.412;5.432;2022-12-15T06:53:38;100686.59;;;-7.17;86.36
74075;BME280;62428;51.412;5.432;2022-12-15T06:56:09;100686.59;;;-7.17;86.28
74075;BME280;62428;51.412;5.432;2022-12-15T06:58:38;100684.31;;;-7.20;86.20
74075;BME280;62428;51.412;5.432;2022-12-15T07:01:04;100693.13;;;-7.21;86.12
74075;BME280;62428;51.412;5.432;2022-12-15T07:03:30;100697.38;;;-7.20;86.14
74075;BME280;62428;51.412;5.432;2022-12-15T07:06:00;100704.19;;;-7.19;86.38
74075;BME280;62428;51.412;5.432;2022-12-15T07:08:26;100699.19;;;-7.21;85.87
74075;BME280;62428;51.412;5.432;2022-12-15T07:10:52;100699.34;;;-7.22;85.91
74075;BME280;62428;51.412;5.432;2022-12-15T07:13:17;100692.31;;;-7.22;85.71
74075;BME280;62428;51.412;5.432;2022-12-15T07:15:42;100691.53;;;-7.22;86.24
74075;BME280;62428;51.412;5.432;2022-12-15T07:18:09;100691.53;;;-7.22;85.95
74075;BME280;62428;51.412;5.432;2022-12-15T07:20:34;100690.91;;;-7.24;86.16
74075;BME280;62428;51.412;5.432;2022-12-15T07:23:00;100701.16;;;-7.23;86.11
74075;BME280;62428;51.412;5.432;2022-12-15T07:25:34;100704.75;;;-7.24;85.45
74075;BME280;62428;51.412;5.432;2022-12-15T07:27:59;100704.47;;;-7.29;85.83
74075;BME280;62428;51.412;5.432;2022-12-15T07:30:25;100705.47;;;-7.30;85.74
74075;BME280;62428;51.412;5.432;2022-12-15T07:32:50;100710.50;;;-7.28;86.13
74075;BME280;62428;51.412;5.432;2022-12-15T07:35:15;100706.91;;;-7.27;85.92
74075;BME280;62428;51.412;5.432;2022-12-15T07:37:41;100706.09;;;-7.28;85.89
74075;BME280;62428;51.412;5.432;2022-12-15T07:40:06;100704.47;;;-7.29;86.12
74075;BME280;62428;51.412;5.432;2022-12-15T07:42:32;100710.69;;;-7.30;85.93
74075;BME280;62428;51.412;5.432;2022-12-15T07:44:57;100712.47;;;-7.30;86.20
74075;BME280;62428;51.412;5.432;2022-12-15T07:47:23;100721.31;;;-7.31;85.76
74075;BME280;62428;51.412;5.432;2022-12-15T07:49:49;100719.50;;;-7.31;85.99
74075;BME280;62428;51.412;5.432;2022-12-15T07:52:14;100728.59;;;-7.27;86.17
74075;BME280;62428;51.412;5.432;2022-12-15T07:54:40;100729.22;;;-7.25;86.29
74075;BME280;62428;51.412;5.432;2022-12-15T07:57:05;100732.31;;;-7.21;86.80
74075;BME280;62428;51.412;5.432;2022-12-15T07:59:33;100732.31;;;-7.21;86.70
74075;BME280;62428;51.412;5.432;2022-12-15T08:01:59;100737.34;;;-7.20;86.95
74075;BME280;62428;51.412;5.432;2022-12-15T08:04:26;100731.94;;;-7.18;87.20
74075;BME280;62428;51.412;5.432;2022-12-15T08:06:55;100728.16;;;-7.16;86.84
74075;BME280;62428;51.412;5.432;2022-12-15T08:09:20;100723.59;;;-7.13;86.55
74075;BME280;62428;51.412;5.432;2022-12-15T08:11:46;100731.22;;;-7.12;86.56
74075;BME280;62428;51.412;5.432;2022-12-15T08:14:12;100740.72;;;-7.11;86.91
74075;BME280;62428;51.412;5.432;2022-12-15T08:16:38;100743.31;;;-7.11;86.97
74075;BME280;62428;51.412;5.432;2022-12-15T08:19:04;100741.97;;;-7.07;86.64
74075;BME280;62428;51.412;5.432;2022-12-15T08:21:31;100737.38;;;-7.05;86.73
74075;BME280;62428;51.412;5.432;2022-12-15T08:23:56;100728.38;;;-7.02;86.50
74075;BME280;62428;51.412;5.432;2022-12-15T08:26:22;100729.19;;;-7.02;86.78
74075;BME280;62428;51.412;5.432;2022-12-15T08:28:48;100733.06;;;-6.98;86.71
74075;BME280;62428;51.412;5.432;2022-12-15T08:31:15;100730.72;;;-6.92;86.92
74075;BME280;62428;51.412;5.432;2022-12-15T08:33:42;100734.81;;;-6.90;86.88
74075;BME280;62428;51.412;5.432;2022-12-15T08:36:09;100728.41;;;-6.87;86.79
74075;BME280;62428;51.412;5.432;2022-12-15T08:38:36;100730.19;;;-6.88;87.04
74075;BME280;62428;51.412;5.432;2022-12-15T08:41:23;100740.91;;;-6.83;86.71
74075;BME280;62428;51.412;5.432;2022-12-15T08:43:50;100750.03;;;-6.79;87.24
74075;BME280;62428;51.412;5.432;2022-12-15T08:46:16;100751.91;;;-6.72;87.04
74075;BME280;62428;51.412;5.432;2022-12-15T08:48:42;100753.44;;;-6.63;87.42
74075;BME280;62428;51.412;5.432;2022-12-15T08:51:08;100748.94;;;-6.54;87.38
74075;BME280;62428;51.412;5.432;2022-12-15T08:53:34;100758.41;;;-6.39;87.31
74075;BME280;62428;51.412;5.432;2022-12-15T08:56:08;100760.00;;;-6.23;86.91
74075;BME280;62428;51.412;5.432;2022-12-15T08:58:34;100762.41;;;-6.06;86.77
74075;BME280;62428;51.412;5.432;2022-12-15T09:01:04;100765.78;;;-5.91;86.29
74075;BME280;62428;51.412;5.432;2022-12-15T09:03:31;100767.56;;;-5.76;85.56
74075;BME280;62428;51.412;5.432;2022-12-15T09:06:01;100775.91;;;-5.66;85.42
74075;BME280;62428;51.412;5.432;2022-12-15T09:08:27;100780.44;;;-5.53;85.41
74075;BME280;62428;51.412;5.432;2022-12-15T09:10:56;100787.25;;;-5.37;84.92
74075;BME280;62428;51.412;5.432;2022-12-15T09:13:21;100796.25;;;-5.25;84.58
74075;BME280;62428;51.412;5.432;2022-12-15T09:15:57;100797.97;;;-5.11;84.04
74075;BME280;62428;51.412;5.432;2022-12-15T09:18:23;100802.53;;;-4.98;83.63
74075;BME280;62428;51.412;5.432;2022-12-15T09:20:48;100804.44;;;-4.85;83.63
74075;BME280;62428;51.412;5.432;2022-12-15T09:23:14;100803.66;;;-4.79;82.93
74075;BME280;62428;51.412;5.432;2022-12-15T09:25:39;100807.31;;;-4.80;83.46
74075;BME280;62428;51.412;5.432;2022-12-15T09:28:04;100801.03;;;-4.79;83.31
74075;BME280;62428;51.412;5.432;2022-12-15T09:30:30;100801.84;;;-4.78;83.36
74075;BME280;62428;51.412;5.432;2022-12-15T09:32:55;100806.66;;;-4.82;83.44
74075;BME280;62428;51.412;5.432;2022-12-15T09:35:20;100810.47;;;-4.85;83.18
74075;BME280;62428;51.412;5.432;2022-12-15T09:37:46;100802.38;;;-4.90;83.59
74075;BME280;62428;51.412;5.432;2022-12-15T09:40:12;100810.41;;;-4.91;83.42
74075;BME280;62428;51.412;5.432;2022-12-15T09:42:38;100818.28;;;-4.91;83.66
74075;BME280;62428;51.412;5.432;2022-12-15T09:45:18;100821.50;;;-4.89;83.86
74075;BME280;62428;51.412;5.432;2022-12-15T09:47:51;100820.53;;;-4.88;84.43
74075;BME280;62428;51.412;5.432;2022-12-15T09:50:23;100824.19;;;-4.83;84.33
74075;BME280;62428;51.412;5.432;2022-12-15T09:52:55;100821.44;;;-4.74;84.06
74075;BME280;62428;51.412;5.432;2022-12-15T09:55:24;100822.53;;;-4.62;84.80
74075;BME280;62428;51.412;5.432;2022-12-15T10:03:48;100826.41;;;-4.23;84.15
74075;BME280;62428;51.412;5.432;2022-12-15T10:06:32;100828.06;;;-4.15;84.23
74075;BME280;62428;51.412;5.432;2022-12-15T10:09:08;100826.28;;;-4.08;84.03
74075;BME280;62428;51.412;5.432;2022-12-15T10:14:38;100825.09;;;-3.99;83.60
74075;BME280;62428;51.412;5.432;2022-12-15T10:17:16;100823.09;;;-3.97;83.88
74075;BME280;62428;51.412;5.432;2022-12-15T10:22:43;100828.59;;;-3.85;84.16
74075;BME280;62428;51.412;5.432;2022-12-15T10:28:05;100819.53;;;-3.69;84.21
74075;BME280;62428;51.412;5.432;2022-12-15T10:30:33;100825.44;;;-3.60;83.50
74075;BME280;62428;51.412;5.432;2022-12-15T10:33:20;100835.97;;;-3.54;83.67
74075;BME280;62428;51.412;5.432;2022-12-15T10:35:47;100838.59;;;-3.54;83.41
74075;BME280;62428;51.412;5.432;2022-12-15T10:41:08;100841.44;;;-3.49;83.88
74075;BME280;62428;51.412;5.432;2022-12-15T10:43:43;100837.41;;;-3.44;83.58
74075;BME280;62428;51.412;5.432;2022-12-15T10:46:15;100835.38;;;-3.42;83.41
74075;BME280;62428;51.412;5.432;2022-12-15T10:52:01;100843.50;;;-3.37;83.56
74075;BME280;62428;51.412;5.432;2022-12-15T10:54:34;100847.75;;;-3.30;83.33
74075;BME280;62428;51.412;5.432;2022-12-15T10:59:44;100838.44;;;-3.25;83.05
74075;BME280;62428;51.412;5.432;2022-12-15T11:07:51;100821.47;;;-3.16;84.38
74075;BME280;62428;51.412;5.432;2022-12-15T11:10:21;100827.13;;;-3.13;83.92
74075;BME280;62428;51.412;5.432;2022-12-15T11:15:39;100830.38;;;-3.11;84.14
74075;BME280;62428;51.412;5.432;2022-12-15T11:18:13;100835.63;;;-3.11;83.94
74075;BME280;62428;51.412;5.432;2022-12-15T11:20:43;100834.44;;;-3.08;84.02
74075;BME280;62428;51.412;5.432;2022-12-15T11:23:31;100833.41;;;-3.07;83.97
74075;BME280;62428;51.412;5.432;2022-12-15T11:26:04;100839.28;;;-3.05;84.83
74075;BME280;62428;51.412;5.432;2022-12-15T11:28:41;100834.41;;;-3.01;85.17
74075;BME280;62428;51.412;5.432;2022-12-15T11:31:21;100827.16;;;-2.93;84.95
74075;BME280;62428;51.412;5.432;2022-12-15T11:33:51;100833.22;;;-2.85;84.56
74075;BME280;62428;51.412;5.432;2022-12-15T11:38:57;100826.34;;;-2.80;84.66
74075;BME280;62428;51.412;5.432;2022-12-15T11:41:43;100829.78;;;-2.73;84.47
74075;BME280;62428;51.412;5.432;2022-12-15T11:44:27;100825.13;;;-2.71;83.92
74075;BME280;62428;51.412;5.432;2022-12-15T11:47:19;100811.75;;;-2.69;83.01
74075;BME280;62428;51.412;5.432;2022-12-15T11:55:47;100818.44;;;-2.53;83.63
74075;BME280;62428;51.412;5.432;2022-12-15T12:11:47;100799.19;;;-1.88;82.62
74075;BME280;62428;51.412;5.432;2022-12-15T12:14:25;100804.25;;;-1.87;82.28
74075;BME280;62428;51.412;5.432;2022-12-15T12:20:06;100799.81;;;-1.93;82.85
74075;BME280;62428;51.412;5.432;2022-12-15T12:22:40;100802.66;;;-1.95;83.44
74075;BME280;62428;51.412;5.432;2022-12-15T12:25:15;100799.22;;;-1.95;83.42
74075;BME280;62428;51.412;5.432;2022-12-15T12:27:53;100797.41;;;-1.95;83.40
74075;BME280;62428;51.412;5.432;2022-12-15T12:30:25;100789.50;;;-1.95;82.33
74075;BME280;62428;51.412;5.432;2022-12-15T12:33:02;100793.72;;;-1.94;83.40
74075;BME280;62428;51.412;5.432;2022-12-15T12:38:08;100793.91;;;-1.88;83.53
74075;BME280;62428;51.412;5.432;2022-12-15T12:43:25;100794.13;;;-1.90;83.36
74075;BME280;62428;51.412;5.432;2022-12-15T12:45:56;100786.22;;;-1.90;83.11
74075;BME280;62428;51.412;5.432;2022-12-15T12:48:30;100780.16;;;-1.90;83.45
74075;BME280;62428;51.412;5.432;2022-12-15T12:51:28;100782.78;;;-1.90;83.04
74075;BME280;62428;51.412;5.432;2022-12-15T12:53:56;100771.44;;;-1.91;82.54
74075;BME280;62428;51.412;5.432;2022-12-15T12:56:43;100769.63;;;-1.90;83.35
74075;BME280;62428;51.412;5.432;2022-12-15T12:59:37;100765.16;;;-1.90;83.80
74075;BME280;62428;51.412;5.432;2022-12-15T13:04:49;100760.06;;;-1.85;83.67
74075;BME280;62428;51.412;5.432;2022-12-15T13:07:36;100757.22;;;-1.83;84.52
74075;BME280;62428;51.412;5.432;2022-12-15T13:10:20;100757.59;;;-1.80;84.06
74075;BME280;62428;51.412;5.432;2022-12-15T13:12:56;100754.78;;;-1.78;83.96
74075;BME280;62428;51.412;5.432;2022-12-15T13:17:54;100752.91;;;-1.71;83.61
74075;BME280;62428;51.412;5.432;2022-12-15T13:20:30;100746.38;;;-1.68;83.40
74075;BME280;62428;51.412;5.432;2022-12-15T13:25:45;100743.13;;;-1.64;83.48
74075;BME280;62428;51.412;5.432;2022-12-15T13:36:41;100731.72;;;-1.58;83.53
74075;BME280;62428;51.412;5.432;2022-12-15T13:44:41;100740.41;;;-1.50;83.85
74075;BME280;62428;51.412;5.432;2022-12-15T13:47:11;100731.88;;;-1.46;83.00
74075;BME280;62428;51.412;5.432;2022-12-15T13:49:48;100725.13;;;-1.42;83.45
74075;BME280;62428;51.412;5.432;2022-12-15T13:54:53;100719.53;;;-1.27;83.37
74075;BME280;62428;51.412;5.432;2022-12-15T13:57:19;100719.66;;;-1.15;82.32
74075;BME280;62428;51.412;5.432;2022-12-15T13:59:50;100721.75;;;-0.99;82.22
74075;BME280;62428;51.412;5.432;2022-12-15T14:05:23;100722.72;;;-0.56;81.46
74075;BME280;62428;51.412;5.432;2022-12-15T14:10:27;100712.06;;;-0.31;80.04
74075;BME280;62428;51.412;5.432;2022-12-15T14:12:56;100711.31;;;-0.20;79.21
74075;BME280;62428;51.412;5.432;2022-12-15T14:15:31;100714.56;;;-0.06;79.87
